KDTA

Delta Municipal Airport

Delta, Utah, USA
METAR KDTA 221455Z AUTO 03005KT 10SM OVC110 13/06 A2993 RMK AO1
Observed Flight Rules
May-22 @ 14:55 UTC (33 minutes ago) Visual Flight Rules
Wind Visibility Clouds
30° at 5 knots 10 miles
  • Overcast at 11,000' AGL
Temperatures Readings
Current 13°C / 55°F
Dewpoint 6°C / 43°F
Humidity 63%
Altimeter 29.93" Hg
Pressure 1014 hPa
Elevation 1402
METAR KDTA 221455Z AUTO 03005KT 10SM OVC110 13/06 A2993 RMK AO1
Observed Flight Rules
May-22 @ 14:55 UTC
(33 minutes ago)
VFR
Wind Visibility
30° at 5 knots 10 miles
Clouds
  • Overcast at 11,000' AGL
Temperature Dewpoint
13°C / 55°F 6°C / 43°F
Humidity Altimeter Pressure
63% 29.93" Hg 1014 hPa